Time;durP1;ratioP1;P1;durP2;ratioP2;P2;SDS_P1;SDS_P2;PMS_P1;PMS_P2;Temp;Humidity;BMP_temperature;BMP_pressure;BME280_temperature;BME280_humidity;BME280_pressure;Samples;Min_cycle;Max_cycle;Signal;HPM_P1;HPM_P2
2023/08/16 00:01:55;;;;;;;;;;;;;;;;;;5034364;28;20076;-85
2023/08/16 00:04:21;;;;;;;8.15;3.55;;;;;;;;;;5035112;28;20017;-85
2023/08/16 00:06:47;;;;;;;;;;;;;;;;;;5035537;28;20041;-85
2023/08/16 00:09:16;;;;;;;7.57;3.67;;;;;;;;;;5018064;28;20447;-85
2023/08/16 00:11:42;;;;;;;7.05;3.38;;;;;;;;;;5014331;28;20042;-85
2023/08/16 00:17:14;;;;;;;5.75;2.75;;;;;;;;;;5311135;22;20057;-86
2023/08/16 00:19:42;;;;;;;;;;;;;;;;;;5022208;28;20501;-86
2023/08/16 00:22:08;;;;;;;4.68;3.03;;;;;;;;;;5034045;28;19960;-86
2023/08/16 00:24:34;;;;;;;7.05;3.40;;;;;;;;;;5050888;28;20041;-86
2023/08/16 00:27:00;;;;;;;7.10;3.08;;;;;;;;;;5034257;28;20057;-86
2023/08/16 00:29:26;;;;;;;;;;;;;;;;;;5034523;28;20110;-86
2023/08/16 00:31:52;;;;;;;11.57;3.05;;;;;;;;;;5050633;28;19971;-85
2023/08/16 00:34:18;;;;;;;;;;;;;;;;;;5042149;28;20049;-85
2023/08/16 00:36:44;;;;;;;10.48;3.60;;;;;;;;;;5033824;28;19920;-86
2023/08/16 00:39:10;;;;;;;;;;;;;;;;;;5018079;28;20056;-86
2023/08/16 00:41:36;;;;;;;11.05;3.67;;;;;;;;;;5034279;28;19966;-86
2023/08/16 00:44:02;;;;;;;;;;;;;;;;;;5034307;28;20489;-86
2023/08/16 00:46:30;;;;;;;9.30;3.97;;;;;;;;;;5033269;28;20026;-85
2023/08/16 00:48:56;;;;;;;9.10;4.13;;;;;;;;;;5001959;28;20084;-86
2023/08/16 00:51:22;;;;;;;6.45;3.80;;;;;;;;;;4982064;28;20068;-85
2023/08/16 00:53:49;;;;;;;6.25;3.20;;;;;;;;;;5014411;28;20487;-86
2023/08/16 00:56:16;;;;;;;5.78;3.00;;;;;;;;;;5016606;28;20099;-85
2023/08/16 00:58:42;;;;;;;5.68;3.05;;;;;;;;;;5000747;28;20048;-85
2023/08/16 01:01:09;;;;;;;5.43;2.40;;;;;;;;;;5015948;28;20390;-85
2023/08/16 01:03:35;;;;;;;4.90;2.90;;;;;;;;;;5018183;28;20088;-86
2023/08/16 01:06:01;;;;;;;;;;;;;;;;;;5034916;28;20037;-86
2023/08/16 01:08:27;;;;;;;6.47;2.75;;;;;;;;;;5033560;28;20416;-85
2023/08/16 01:10:53;;;;;;;;;;;;;;;;;;5018276;28;20044;-85
2023/08/16 01:13:22;;;;;;;4.47;2.92;;;;;;;;;;5022015;28;19921;-86
2023/08/16 01:15:50;;;;;;;6.93;3.30;;;;;;;;;;5014011;28;20078;-86
2023/08/16 01:18:16;;;;;;;4.32;2.88;;;;;;;;;;5013725;28;20509;-85
2023/08/16 01:20:44;;;;;;;5.65;3.67;;;;;;;;;;5016265;28;20044;-84
2023/08/16 01:23:21;;;;;;;5.93;3.00;;;;;;;;;;4998683;28;20052;-84
2023/08/16 01:25:48;;;;;;;3.05;2.38;;;;;;;;;;5003703;28;20138;-85
2023/08/16 01:28:14;;;;;;;7.25;3.40;;;;;;;;;;5021344;28;20048;-86
2023/08/16 01:30:45;;;;;;;8.93;3.47;;;;;;;;;;5021115;28;20434;-86
2023/08/16 01:33:11;;;;;;;9.40;3.88;;;;;;;;;;5034649;28;20449;-84
2023/08/16 01:35:38;;;;;;;6.05;3.10;;;;;;;;;;5018051;28;20133;-86
2023/08/16 01:38:04;;;;;;;7.10;3.58;;;;;;;;;;4985683;28;20398;-85
2023/08/16 01:40:31;;;;;;;8.05;4.30;;;;;;;;;;5001169;28;20056;-86
2023/08/16 01:42:58;;;;;;;6.25;3.85;;;;;;;;;;5016894;28;20098;-86
2023/08/16 01:45:25;;;;;;;10.07;4.25;;;;;;;;;;5006511;28;20045;-86
2023/08/16 01:47:52;;;;;;;8.40;3.75;;;;;;;;;;5021356;28;20470;-86
2023/08/16 01:50:18;;;;;;;8.02;3.80;;;;;;;;;;5004079;28;20044;-86
2023/08/16 01:52:44;;;;;;;7.18;3.78;;;;;;;;;;5032015;28;20045;-86
2023/08/16 01:55:11;;;;;;;8.18;4.32;;;;;;;;;;5017714;28;20068;-86
2023/08/16 01:57:37;;;;;;;8.68;3.70;;;;;;;;;;5016868;28;20387;-86
2023/08/16 02:00:03;;;;;;;10.93;4.47;;;;;;;;;;5016803;28;20479;-86
2023/08/16 02:02:30;;;;;;;8.98;4.75;;;;;;;;;;4984487;28;20095;-86
2023/08/16 02:04:56;;;;;;;7.35;4.18;;;;;;;;;;5017723;28;20088;-86
2023/08/16 02:07:23;;;;;;;;;;;;;;;;;;5006767;28;20418;-86
2023/08/16 02:09:49;;;;;;;;;;;;;;;;;;5017786;28;19928;-85
2023/08/16 02:12:15;;;;;;;6.60;4.07;;;;;;;;;;5033320;28;19951;-84
2023/08/16 02:14:41;;;;;;;10.57;4.10;;;;;;;;;;5007885;28;20048;-86
2023/08/16 02:17:07;;;;;;;;;;;;;;;;;;5021042;28;20049;-86
2023/08/16 02:19:33;;;;;;;8.55;4.20;;;;;;;;;;5036363;28;19927;-86
2023/08/16 02:21:59;;;;;;;;;;;;;;;;;;5037179;28;20041;-87
2023/08/16 02:24:25;;;;;;;9.20;3.55;;;;;;;;;;5036464;28;19928;-86
2023/08/16 02:26:51;;;;;;;8.90;3.83;;;;;;;;;;5036616;28;20053;-85
2023/08/16 02:29:17;;;;;;;;;;;;;;;;;;5036534;28;20041;-84
2023/08/16 02:31:43;;;;;;;8.30;3.90;;;;;;;;;;5035845;28;19942;-87
2023/08/16 02:34:09;;;;;;;10.65;4.00;;;;;;;;;;5036785;28;20099;-85
2023/08/16 02:36:35;;;;;;;;;;;;;;;;;;5028820;28;20044;-86
2023/08/16 02:39:02;;;;;;;7.07;2.22;;;;;;;;;;5036751;28;20015;-85
2023/08/16 02:41:28;;;;;;;73.22;3.70;;;;;;;;;;5019860;28;20041;-86
2023/08/16 02:43:54;;;;;;;5.20;3.05;;;;;;;;;;5035688;28;20127;-85
2023/08/16 02:46:20;;;;;;;4.30;2.72;;;;;;;;;;5019580;28;20052;-84
2023/08/16 02:48:46;;;;;;;;;;;;;;;;;;5004376;28;20056;-86
2023/08/16 02:51:12;;;;;;;4.80;2.35;;;;;;;;;;5035420;28;19924;-86
2023/08/16 02:53:38;;;;;;;;;;;;;;;;;;5034765;28;20045;-86
2023/08/16 02:56:04;;;;;;;3.10;2.20;;;;;;;;;;5036534;28;20373;-86
2023/08/16 02:58:30;;;;;;;3.50;1.83;;;;;;;;;;5035262;28;20068;-87
2023/08/16 03:00:56;;;;;;;;;;;;;;;;;;5019980;28;20097;-87
2023/08/16 03:03:22;;;;;;;4.95;2.25;;;;;;;;;;5036214;28;20022;-85
2023/08/16 03:05:48;;;;;;;;;;;;;;;;;;5036988;28;20048;-86
2023/08/16 03:08:14;;;;;;;4.63;2.67;;;;;;;;;;5036277;28;19921;-87
2023/08/16 03:10:40;;;;;;;4.78;3.10;;;;;;;;;;5002306;28;20138;-86
2023/08/16 03:13:06;;;;;;;5.65;2.80;;;;;;;;;;5034492;28;20090;-86
2023/08/16 03:15:33;;;;;;;;;;;;;;;;;;5011589;28;20045;-86
2023/08/16 03:17:59;;;;;;;7.43;3.92;;;;;;;;;;5016159;28;19943;-86
2023/08/16 03:20:25;;;;;;;6.53;4.03;;;;;;;;;;5015641;28;20053;-84
2023/08/16 03:22:51;;;;;;;9.20;4.43;;;;;;;;;;5015136;28;20041;-87
2023/08/16 03:25:17;;;;;;;12.85;5.00;;;;;;;;;;5036033;28;20128;-86
2023/08/16 03:27:43;;;;;;;;;;;;;;;;;;5035463;28;20078;-86
2023/08/16 03:30:10;;;;;;;11.65;4.97;;;;;;;;;;5035078;28;19975;-86
2023/08/16 03:32:36;;;;;;;12.23;4.75;;;;;;;;;;5033854;28;20188;-87
2023/08/16 03:35:02;;;;;;;;;;;;;;;;;;5025695;28;20124;-86
2023/08/16 03:37:28;;;;;;;6.07;3.70;;;;;;;;;;5033453;28;19928;-85
2023/08/16 03:39:55;;;;;;;9.23;4.20;;;;;;;;;;5024234;28;20511;-86
2023/08/16 03:42:21;;;;;;;11.23;4.47;;;;;;;;;;5033324;28;20056;-84
2023/08/16 03:44:47;;;;;;;12.27;5.20;;;;;;;;;;5017827;28;20103;-86
2023/08/16 03:47:13;;;;;;;11.35;5.68;;;;;;;;;;5027234;28;20091;-86
2023/08/16 03:49:39;;;;;;;;;;;;;;;;;;5015404;28;20060;-86
2023/08/16 03:52:06;;;;;;;9.27;3.25;;;;;;;;;;5015688;28;20543;-87
2023/08/16 03:54:33;;;;;;;8.60;3.58;;;;;;;;;;5017416;28;20045;-84
2023/08/16 03:56:59;;;;;;;9.95;4.45;;;;;;;;;;5018458;28;20056;-86
2023/08/16 03:59:25;;;;;;;8.48;5.03;;;;;;;;;;4998776;28;20048;-86
2023/08/16 04:01:51;;;;;;;;;;;;;;;;;;4982336;28;20091;-86
2023/08/16 04:04:17;;;;;;;7.53;3.63;;;;;;;;;;5027784;28;19924;-86
2023/08/16 04:06:43;;;;;;;9.80;3.72;;;;;;;;;;5014796;28;20049;-87
2023/08/16 04:09:09;;;;;;;11.73;5.18;;;;;;;;;;4982807;28;20041;-86
2023/08/16 04:11:35;;;;;;;10.55;5.00;;;;;;;;;;4982378;28;20430;-85
2023/08/16 04:14:01;;;;;;;;;;;;;;;;;;5029037;28;20057;-86
2023/08/16 04:16:27;;;;;;;19.70;4.28;;;;;;;;;;5018164;28;19927;-85
2023/08/16 04:18:54;;;;;;;;;;;;;;;;;;4998556;28;20060;-86
2023/08/16 04:21:20;;;;;;;6.95;3.47;;;;;;;;;;5021533;28;19921;-86
2023/08/16 04:23:46;;;;;;;;;;;;;;;;;;5017413;28;20044;-86
2023/08/16 04:26:12;;;;;;;6.50;2.90;;;;;;;;;;5034400;28;20381;-85
2023/08/16 04:28:39;;;;;;;7.55;2.28;;;;;;;;;;5005373;28;20048;-86
2023/08/16 04:31:05;;;;;;;5.38;2.70;;;;;;;;;;5014678;28;20131;-85
2023/08/16 04:33:32;;;;;;;7.40;3.35;;;;;;;;;;5004850;28;20390;-84
2023/08/16 04:35:58;;;;;;;9.88;4.38;;;;;;;;;;4998781;28;20368;-86
2023/08/16 04:38:24;;;;;;;12.38;5.05;;;;;;;;;;5031872;28;20049;-85
2023/08/16 04:40:50;;;;;;;;;;;;;;;;;;5014826;28;20041;-86
2023/08/16 04:43:18;;;;;;;11.45;5.22;;;;;;;;;;5030205;28;19932;-86
2023/08/16 04:45:44;;;;;;;11.50;5.68;;;;;;;;;;5015485;28;20052;-86
2023/08/16 04:48:10;;;;;;;10.63;6.00;;;;;;;;;;5017395;28;20139;-87
2023/08/16 04:50:36;;;;;;;13.60;6.45;;;;;;;;;;5017152;28;20464;-86
2023/08/16 04:53:02;;;;;;;;;;;;;;;;;;5018458;28;20402;-86
2023/08/16 04:55:28;;;;;;;13.10;6.63;;;;;;;;;;5034386;28;19920;-88
2023/08/16 04:57:55;;;;;;;11.38;6.07;;;;;;;;;;5012050;28;20054;-87
2023/08/16 05:00:21;;;;;;;14.75;6.93;;;;;;;;;;5015577;28;20048;-87
2023/08/16 05:02:47;;;;;;;13.57;6.95;;;;;;;;;;5025577;28;20046;-86
2023/08/16 05:05:13;;;;;;;8.00;4.70;;;;;;;;;;4998139;28;20045;-86
2023/08/16 05:07:40;;;;;;;;;;;;;;;;;;5014648;28;20445;-87
2023/08/16 05:10:06;;;;;;;7.93;4.63;;;;;;;;;;5028978;28;20411;-86
2023/08/16 05:12:32;;;;;;;10.40;4.45;;;;;;;;;;5017644;28;20060;-86
2023/08/16 05:14:58;;;;;;;8.13;4.50;;;;;;;;;;5016564;28;20164;-86
2023/08/16 05:17:24;;;;;;;;;;;;;;;;;;5032228;28;20513;-86
2023/08/16 05:19:50;;;;;;;9.43;5.07;;;;;;;;;;5017093;28;20019;-85
2023/08/16 05:22:16;;;;;;;13.48;6.00;;;;;;;;;;5001037;28;20037;-87
2023/08/16 05:24:42;;;;;;;;;;;;;;;;;;5017454;28;20049;-86
2023/08/16 05:27:12;;;;;;;9.90;5.47;;;;;;;;;;5033767;28;19928;-86
2023/08/16 05:29:39;;;;;;;14.20;6.20;;;;;;;;;;5005393;28;20534;-84
2023/08/16 05:32:05;;;;;;;9.50;5.78;;;;;;;;;;5030921;28;20099;-85
2023/08/16 05:34:31;;;;;;;11.18;5.80;;;;;;;;;;4998135;28;20056;-87
2023/08/16 05:36:57;;;;;;;;;;;;;;;;;;5014345;28;20046;-85
2023/08/16 05:39:24;;;;;;;10.90;5.50;;;;;;;;;;5032912;28;20000;-86
2023/08/16 05:41:50;;;;;;;9.27;4.90;;;;;;;;;;5016663;28;20048;-85
2023/08/16 05:44:16;;;;;;;;;;;;;;;;;;5032074;28;20041;-87
2023/08/16 05:46:42;;;;;;;12.73;5.35;;;;;;;;;;5031941;28;19925;-85
2023/08/16 05:49:08;;;;;;;;;;;;;;;;;;5034368;28;20041;-86
2023/08/16 05:51:34;;;;;;;10.57;4.70;;;;;;;;;;5029697;28;19921;-86
2023/08/16 05:54:00;;;;;;;;;;;;;;;;;;5013923;28;20088;-86
2023/08/16 05:56:26;;;;;;;9.85;5.28;;;;;;;;;;5013766;28;19983;-86
2023/08/16 05:58:52;;;;;;;;;;;;;;;;;;5008642;28;20048;-86
2023/08/16 06:01:18;;;;;;;9.63;5.38;;;;;;;;;;5033248;28;19921;-86
2023/08/16 06:03:44;;;;;;;;;;;;;;;;;;5017387;28;20481;-86
2023/08/16 06:06:10;;;;;;;12.43;5.97;;;;;;;;;;5026711;28;19921;-86
2023/08/16 06:08:36;;;;;;;;;;;;;;;;;;5030382;28;20542;-85
2023/08/16 06:11:02;;;;;;;11.65;6.93;;;;;;;;;;5022584;28;20027;-86
2023/08/16 06:13:28;;;;;;;;;;;;;;;;;;5037091;28;20513;-85
2023/08/16 06:15:54;;;;;;;14.18;6.90;;;;;;;;;;5035962;28;19921;-85
2023/08/16 06:18:20;;;;;;;;;;;;;;;;;;5017051;28;20058;-85
2023/08/16 06:20:46;;;;;;;12.98;6.70;;;;;;;;;;5031140;28;19929;-86
2023/08/16 06:23:12;;;;;;;;;;;;;;;;;;5014305;28;20050;-86
2023/08/16 06:25:38;;;;;;;;;;;;;;;;;;5027072;28;20078;-86
2023/08/16 06:28:05;;;;;;;;;;;;;;;;;;5032044;28;20351;-84
2023/08/16 06:30:31;;;;;;;;;;;;;;;;;;5016746;28;20286;-79
2023/08/16 06:32:57;;;;;;;;;;;;;;;;;;5009972;28;19928;-79
2023/08/16 06:35:22;;;;;;;;;;;;;;;;;;5033985;28;19925;-79
2023/08/16 06:37:48;;;;;;;;;;;;;;;;;;5030417;28;20543;-80
2023/08/16 06:40:14;;;;;;;;;;;;;;;;;;5017229;28;20015;-79
2023/08/16 06:42:40;;;;;;;;;;;;;;;;;;5023552;28;19921;-80
2023/08/16 06:45:06;;;;;;;;;;;;;;;;;;5032691;28;19921;-80
2023/08/16 06:47:32;;;;;;;;;;;;;;;;;;5030702;28;19936;-80
2023/08/16 06:49:58;;;;;;;;;;;;;;;;;;5013460;28;19921;-79
2023/08/16 06:52:24;;;;;;;;;;;;;;;;;;5031319;28;19921;-80
2023/08/16 06:54:50;;;;;;;;;;;;;;;;;;5032878;28;19928;-80
2023/08/16 06:57:16;;;;;;;;;;;;;;;;;;5033256;28;19921;-80
2023/08/16 06:59:42;;;;;;;;;;;;;;;;;;5031352;28;19968;-80
2023/08/16 07:02:11;;;;;;;;;;;;;;;;;;5032582;28;19948;-80
2023/08/16 07:04:38;;;;;;;;;;;;;;;;;;5033416;28;19928;-80
2023/08/16 07:07:04;;;;;;;;;;;;;;;;;;5018243;28;19925;-79
2023/08/16 07:09:30;;;;;;;;;;;;;;;;;;5032763;28;20020;-80
2023/08/16 07:11:56;;;;;;;;;;;;;;;;;;5024905;28;19972;-80
2023/08/16 07:14:22;;;;;;;;;;;;;;;;;;5011205;28;19983;-80
2023/08/16 07:16:48;;;;;;;;;;;;;;;;;;5012274;28;19925;-80
2023/08/16 07:19:14;;;;;;;;;;;;;;;;;;5013314;28;19929;-80
2023/08/16 07:21:40;;;;;;;;;;;;;;;;;;5030296;28;19988;-79
2023/08/16 07:24:06;;;;;;;;;;;;;;;;;;5032265;28;19921;-80
2023/08/16 07:26:31;;;;;;;;;;;;;;;;;;5032144;28;19921;-80
2023/08/16 07:28:57;;;;;;;;;;;;;;;;;;5011870;28;20359;-80
2023/08/16 07:31:23;;;;;;;;;;;;;;;;;;5027653;28;20277;-85
2023/08/16 07:33:49;;;;;;;;;;;;;;;;;;5015877;28;19921;-78
2023/08/16 07:36:15;;;;;;;;;;;;;;;;;;5016469;28;19921;-69
2023/08/16 07:38:41;;;;;;;;;;;;;;;;;;5032458;28;20329;-69
2023/08/16 07:41:07;;;;;;;;;;;;;;;;;;5033072;28;19921;-70
2023/08/16 07:43:33;;;;;;;;;;;;;;;;;;5019013;28;20016;-69
2023/08/16 07:46:00;;;;;;;;;;;;;;;;;;5012939;28;19929;-70
2023/08/16 07:48:26;;;;;;;;;;;;;;;;;;5020535;28;19983;-73
2023/08/16 07:50:52;;;;;;;;;;;;;;;;;;5030487;28;20386;-70
2023/08/16 07:53:17;;;;;;;;;;;;;;;;;;5029130;28;20323;-71
2023/08/16 07:55:43;;;;;;;;;;;;;;;;;;5016136;28;19943;-71
2023/08/16 07:58:10;;;;;;;;;;;;;;;;;;5013787;28;19928;-72
2023/08/16 08:00:35;;;;;;;;;;;;;;;;;;5029156;28;19974;-69
2023/08/16 08:03:01;;;;;;;;;;;;;;;;;;5040336;28;19921;-69
2023/08/16 08:05:29;;;;;;;;;;;;;;;;;;5013270;28;19929;-69
2023/08/16 08:07:55;;;;;;;;;;;;;;;;;;5028842;28;19966;-71
2023/08/16 08:10:21;;;;;;;;;;;;;;;;;;5018869;28;19925;-71
2023/08/16 08:12:47;;;;;;;;;;;;;;;;;;5021819;28;20341;-73
2023/08/16 08:15:13;;;;;;;;;;;;;;;;;;5023795;28;19925;-74
2023/08/16 08:17:39;;;;;;;;;;;;;;;;;;5016979;28;19922;-71
2023/08/16 08:20:05;;;;;;;;;;;;;;;;;;5011764;28;20473;-71
2023/08/16 08:22:31;;;;;;;;;;;;;;;;;;5012709;28;19925;-72
2023/08/16 08:24:56;;;;;;;;;;;;;;;;;;5010348;28;19921;-72
2023/08/16 08:27:22;;;;;;;;;;;;;;;;;;5016042;28;19945;-71
2023/08/16 08:29:48;;;;;;;;;;;;;;;;;;5020265;28;19975;-72
2023/08/16 08:32:14;;;;;;;;;;;;;;;;;;5013015;28;19983;-71
2023/08/16 08:34:40;;;;;;;;;;;;;;;;;;5022232;28;20354;-71
2023/08/16 08:37:06;;;;;;;;;;;;;;;;;;5046802;28;19927;-71
2023/08/16 08:39:33;;;;;;;;;;;;;;;;;;5031299;28;19932;-71
2023/08/16 08:41:59;;;;;;;;;;;;;;;;;;5030636;28;19924;-72
2023/08/16 08:44:25;;;;;;;;;;;;;;;;;;5026242;28;19931;-84
2023/08/16 08:46:50;;;;;;;;;;;;;;;;;;5019268;28;19936;-79
2023/08/16 08:49:16;;;;;;;;;;;;;;;;;;5009996;28;20282;-78
2023/08/16 08:51:43;;;;;;;;;;;;;;;;;;5011688;28;20055;-83
2023/08/16 08:54:11;;;;;;;;;;;;;;;;;;5029225;28;19921;-83
2023/08/16 08:56:37;;;;;;;;;;;;;;;;;;5030845;28;19928;-83
2023/08/16 08:59:03;;;;;;;;;;;;;;;;;;5029249;28;19925;-83
2023/08/16 09:01:29;;;;;;;;;;;;;;;;;;5030271;28;19971;-83
2023/08/16 09:03:55;;;;;;;;;;;;;;;;;;5030916;28;19964;-83
2023/08/16 09:06:21;;;;;;;;;;;;;;;;;;5030675;28;20334;-83
2023/08/16 09:08:47;;;;;;;;;;;;;;;;;;5030475;28;19928;-83
2023/08/16 09:11:13;;;;;;;;;;;;;;;;;;5027553;28;19921;-83
2023/08/16 09:13:39;;;;;;;;;;;;;;;;;;5020228;28;19948;-83
2023/08/16 09:16:05;;;;;;;;;;;;;;;;;;5026084;28;19929;-83
2023/08/16 09:18:31;;;;;;;;;;;;;;;;;;5034320;28;19921;-83
2023/08/16 09:20:57;;;;;;;;;;;;;;;;;;5030986;28;19921;-84
2023/08/16 09:23:23;;;;;;;;;;;;;;;;;;5034206;28;19927;-83
2023/08/16 09:25:50;;;;;;;;;;;;;;;;;;5034310;28;19928;-83
2023/08/16 09:28:17;;;;;;;;;;;;;;;;;;5032658;28;20353;-83
2023/08/16 09:30:42;;;;;;;;;;;;;;;;;;5029993;28;19974;-82
2023/08/16 09:33:09;;;;;;;;;;;;;;;;;;5024146;28;20001;-83
2023/08/16 09:35:35;;;;;;;;;;;;;;;;;;5032436;28;20426;-78
2023/08/16 09:38:01;;;;;;;;;;;;;;;;;;5033069;28;20316;-70
2023/08/16 09:40:27;;;;;;;;;;;;;;;;;;5048542;28;19928;-69
2023/08/16 09:42:53;;;;;;;;;;;;;;;;;;5032126;28;20058;-70
2023/08/16 09:45:19;;;;;;;;;;;;;;;;;;5052806;28;19921;-69
2023/08/16 09:47:45;;;;;;;;;;;;;;;;;;5028436;28;19943;-67
2023/08/16 09:50:11;;;;;;;;;;;;;;;;;;5041554;28;19921;-67
2023/08/16 09:52:37;;;;;;;;;;;;;;;;;;5042003;28;19921;-72
2023/08/16 09:55:03;;;;;;;;;;;;;;;;;;5036404;28;19921;-67
2023/08/16 09:57:29;;;;;;;;;;;;;;;;;;5041942;28;19921;-66
2023/08/16 09:59:55;;;;;;;;;;;;;;;;;;5053320;28;19978;-70
2023/08/16 10:02:21;;;;;;;;;;;;;;;;;;5054126;28;20089;-71
2023/08/16 10:04:47;;;;;;;;;;;;;;;;;;5055407;28;19925;-77
2023/08/16 10:07:13;;;;;;;;;;;;;;;;;;5032358;28;19920;-82
2023/08/16 10:09:39;;;;;;;;;;;;;;;;;;5033625;28;19928;-83
2023/08/16 10:12:06;;;;;;;;;;;;;;;;;;5035530;28;19993;-81
2023/08/16 10:14:32;;;;;;;;;;;;;;;;;;5017373;28;19929;-83
2023/08/16 10:16:59;;;;;;;;;;;;;;;;;;5028700;28;20424;-83
2023/08/16 10:19:25;;;;;;;;;;;;;;;;;;5036853;28;19943;-83
2023/08/16 10:21:52;;;;;;;;;;;;;;;;;;5037279;28;19921;-84
2023/08/16 10:24:18;;;;;;;;;;;;;;;;;;5036939;28;19921;-79
2023/08/16 10:26:44;;;;;;;;;;;;;;;;;;5033949;28;19920;-83
2023/08/16 10:29:10;;;;;;;;;;;;;;;;;;5035781;28;19989;-82
2023/08/16 10:31:36;;;;;;;;;;;;;;;;;;5024609;28;19921;-82
2023/08/16 10:34:02;;;;;;;;;;;;;;;;;;5031203;28;20130;-81
2023/08/16 10:36:28;;;;;;;;;;;;;;;;;;5036815;28;19921;-81
2023/08/16 10:38:55;;;;;;;;;;;;;;;;;;5036426;28;19928;-81
2023/08/16 10:41:21;;;;;;;;;;;;;;;;;;5036203;28;19921;-69
2023/08/16 10:43:47;;;;;;;;;;;;;;;;;;5053566;28;19920;-74
2023/08/16 10:46:13;;;;;;;;;;;;;;;;;;5016453;28;19967;-68
2023/08/16 10:48:39;;;;;;;;;;;;;;;;;;5034732;28;20400;-66
2023/08/16 10:51:06;;;;;;;;;;;;;;;;;;5050492;28;20336;-67
2023/08/16 10:53:32;;;;;;;;;;;;;;;;;;5036008;28;19924;-69
2023/08/16 10:55:58;;;;;;;;;;;;;;;;;;5052791;28;19951;-70
2023/08/16 10:58:24;;;;;;;;;;;;;;;;;;5042781;28;19971;-68
2023/08/16 11:00:50;;;;;;;;;;;;;;;;;;5053929;28;19968;-71
2023/08/16 11:03:16;;;;;;;;;;;;;;;;;;5053890;28;19928;-81
2023/08/16 11:05:42;;;;;;;;;;;;;;;;;;5036532;28;19920;-83
2023/08/16 11:08:08;;;;;;;;;;;;;;;;;;5041383;28;19925;-83
2023/08/16 11:10:35;;;;;;;;;;;;;;;;;;5033667;28;19928;-73
2023/08/16 11:13:00;;;;;;;;;;;;;;;;;;5037923;28;19971;-72
2023/08/16 11:15:26;;;;;;;;;;;;;;;;;;5035550;28;19963;-72
2023/08/16 11:17:55;;;;;;;;;;;;;;;;;;5048915;28;20389;-78
2023/08/16 11:20:21;;;;;;;;;;;;;;;;;;5026258;28;19921;-78
2023/08/16 11:22:47;;;;;;;;;;;;;;;;;;5035721;28;19920;-79
2023/08/16 11:25:13;;;;;;;;;;;;;;;;;;5027718;28;19924;-79
2023/08/16 11:27:39;;;;;;;;;;;;;;;;;;5018869;28;19921;-80
2023/08/16 11:30:05;;;;;;;;;;;;;;;;;;5034314;28;19987;-83
2023/08/16 11:32:32;;;;;;;;;;;;;;;;;;5022970;28;19921;-80
2023/08/16 11:34:58;;;;;;;;;;;;;;;;;;5029970;28;19927;-80
2023/08/16 11:37:24;;;;;;;;;;;;;;;;;;5022836;28;19921;-82
2023/08/16 11:39:50;;;;;;;;;;;;;;;;;;5030386;28;19921;-82
2023/08/16 11:42:16;;;;;;;;;;;;;;;;;;5034836;28;19928;-80
2023/08/16 11:44:41;;;;;;;;;;;;;;;;;;5034284;28;20007;-81
2023/08/16 11:47:07;;;;;;;;;;;;;;;;;;5031669;28;19921;-80
2023/08/16 11:49:33;;;;;;;;;;;;;;;;;;5020506;28;19982;-81
2023/08/16 11:51:59;;;;;;;;;;;;;;;;;;5025619;28;19932;-83
2023/08/16 11:54:25;;;;;;;;;;;;;;;;;;5019888;28;19928;-82
2023/08/16 11:56:51;;;;;;;;;;;;;;;;;;5026716;28;19921;-82
2023/08/16 11:59:17;;;;;;;;;;;;;;;;;;5029072;28;19954;-80
2023/08/16 12:01:44;;;;;;;;;;;;;;;;;;5024637;28;20011;-82
2023/08/16 12:04:09;;;;;;;;;;;;;;;;;;5035421;28;19964;-82
2023/08/16 12:06:35;;;;;;;;;;;;;;;;;;5035049;28;19959;-82
2023/08/16 12:09:01;;;;;;;;;;;;;;;;;;5033629;28;19921;-82
2023/08/16 12:11:27;;;;;;;;;;;;;;;;;;5029144;28;19950;-83
2023/08/16 12:13:53;;;;;;;;;;;;;;;;;;5033857;28;19924;-82
2023/08/16 12:16:19;;;;;;;;;;;;;;;;;;5025335;28;19921;-81
2023/08/16 12:18:45;;;;;;;;;;;;;;;;;;5034987;28;19920;-83
2023/08/16 12:21:11;;;;;;;;;;;;;;;;;;5033377;28;20378;-83
2023/08/16 12:23:37;;;;;;;;;;;;;;;;;;5034204;28;19925;-83
2023/08/16 12:26:05;;;;;;;;;;;;;;;;;;5035091;28;19921;-83
2023/08/16 12:28:30;;;;;;;;;;;;;;;;;;5030099;28;19964;-83
2023/08/16 12:30:56;;;;;;;;;;;;;;;;;;5027401;28;20009;-83
2023/08/16 12:33:22;;;;;;;;;;;;;;;;;;5034511;28;20392;-81
2023/08/16 12:35:48;;;;;;;;;;;;;;;;;;5035070;28;20378;-83
2023/08/16 12:38:15;;;;;;;;;;;;;;;;;;5032475;28;20347;-84
2023/08/16 12:40:41;;;;;;;;;;;;;;;;;;5022542;28;20392;-83
2023/08/16 12:43:07;;;;;;;;;;;;;;;;;;5029296;28;19921;-84
2023/08/16 12:45:33;;;;;;;;;;;;;;;;;;5025523;28;19974;-83
2023/08/16 12:47:59;;;;;;;;;;;;;;;;;;5034488;28;19928;-83
2023/08/16 12:50:25;;;;;;;;;;;;;;;;;;5034111;28;19920;-83
2023/08/16 12:52:51;;;;;;;;;;;;;;;;;;5034402;28;19921;-83
2023/08/16 12:55:17;;;;;;;;;;;;;;;;;;5034235;28;20019;-83
2023/08/16 12:57:43;;;;;;;;;;;;;;;;;;5027770;28;20700;-83
2023/08/16 13:00:12;;;;;;;;;;;;;;;;;;5024325;28;19921;-83
2023/08/16 13:02:38;;;;;;;;;;;;;;;;;;5027626;28;19921;-84
2023/08/16 13:05:04;;;;;;;;;;;;;;;;;;5034478;28;20386;-84
2023/08/16 13:07:30;;;;;;;;;;;;;;;;;;5027519;28;19921;-83
2023/08/16 13:09:56;;;;;;;;;;;;;;;;;;5030891;28;20366;-84
2023/08/16 13:12:22;;;;;;;;;;;;;;;;;;5034111;28;19924;-83
2023/08/16 13:14:48;;;;;;;;;;;;;;;;;;5032606;28;19929;-83
2023/08/16 13:17:14;;;;;;;;;;;;;;;;;;5034236;28;19928;-84
2023/08/16 13:19:40;;;;;;;;;;;;;;;;;;5035677;28;19965;-84
2023/08/16 13:22:11;;;;;;;;;;;;;;;;;;5025970;28;19944;-83
2023/08/16 13:24:37;;;;;;;;;;;;;;;;;;5035200;28;19947;-83
2023/08/16 13:27:03;;;;;;;;;;;;;;;;;;5036879;28;19954;-84
2023/08/16 13:29:29;;;;;;;;;;;;;;;;;;5032959;28;19927;-82
2023/08/16 13:31:56;;;;;;;;;;;;;;;;;;5028846;28;20435;-83
2023/08/16 13:34:22;;;;;;;;;;;;;;;;;;5037221;28;20349;-84
2023/08/16 13:36:48;;;;;;;;;;;;;;;;;;5028831;28;19971;-84
2023/08/16 13:39:14;;;;;;;;;;;;;;;;;;5037527;28;19927;-83
2023/08/16 13:41:40;;;;;;;;;;;;;;;;;;5034422;28;19920;-84
2023/08/16 13:44:06;;;;;;;;;;;;;;;;;;5037241;28;19925;-82
2023/08/16 13:46:32;;;;;;;;;;;;;;;;;;5035637;28;19924;-82
2023/08/16 13:48:58;;;;;;;;;;;;;;;;;;5021496;28;19928;-83
2023/08/16 13:51:24;;;;;;;;;;;;;;;;;;5031158;28;19921;-83
2023/08/16 13:53:50;;;;;;;;;;;;;;;;;;5037183;28;19924;-83
2023/08/16 13:56:16;;;;;;;;;;;;;;;;;;5037910;28;19925;-83
2023/08/16 13:58:42;;;;;;;;;;;;;;;;;;5028322;28;19963;-84
2023/08/16 14:01:08;;;;;;;;;;;;;;;;;;5037106;28;19928;-83
2023/08/16 14:03:34;;;;;;;;;;;;;;;;;;5031518;28;20255;-83
2023/08/16 14:06:00;;;;;;;;;;;;;;;;;;5037606;28;19928;-83
2023/08/16 14:08:26;;;;;;;;;;;;;;;;;;5037337;28;19920;-83
2023/08/16 14:10:52;;;;;;;;;;;;;;;;;;5036244;28;20397;-83
2023/08/16 14:13:18;;;;;;;;;;;;;;;;;;5023774;28;19920;-83
2023/08/16 14:15:44;;;;;;;;;;;;;;;;;;5024633;28;19921;-83
2023/08/16 14:18:10;;;;;;;;;;;;;;;;;;5025626;28;19920;-83
2023/08/16 14:20:36;;;;;;;;;;;;;;;;;;5017360;28;19928;-83
2023/08/16 14:23:02;;;;;;;;;;;;;;;;;;5017349;28;20011;-83
2023/08/16 14:25:28;;;;;;;;;;;;;;;;;;5017627;28;19928;-83
2023/08/16 14:27:54;;;;;;;;;;;;;;;;;;5016247;28;19925;-82
2023/08/16 14:30:19;;;;;;;;;;;;;;;;;;5017933;28;20012;-82
2023/08/16 14:32:45;;;;;;;;;;;;;;;;;;5036660;28;19928;-83
2023/08/16 14:35:11;;;;;;;;;;;;;;;;;;5037436;28;19921;-83
2023/08/16 14:37:37;;;;;;;;;;;;;;;;;;5035891;28;20463;-81
2023/08/16 14:40:03;;;;;;;;;;;;;;;;;;5024130;28;20386;-83
2023/08/16 14:42:29;;;;;;;;;;;;;;;;;;5018457;28;19921;-83
2023/08/16 14:44:55;;;;;;;;;;;;;;;;;;5035950;28;20018;-83
2023/08/16 14:47:21;;;;;;;;;;;;;;;;;;5028295;28;19928;-82
2023/08/16 14:49:47;;;;;;;;;;;;;;;;;;5036609;28;19920;-82
2023/08/16 14:52:13;;;;;;;;;;;;;;;;;;5037065;28;19925;-83
2023/08/16 14:54:40;;;;;;;;;;;;;;;;;;5036484;28;19920;-82
2023/08/16 14:57:06;;;;;;;;;;;;;;;;;;5029789;28;20015;-84
2023/08/16 14:59:32;;;;;;;;;;;;;;;;;;5018091;28;20011;-83
2023/08/16 15:01:58;;;;;;;;;;;;;;;;;;5015915;28;19921;-83
2023/08/16 15:04:23;;;;;;;;;;;;;;;;;;5032027;28;19925;-83
2023/08/16 15:06:49;;;;;;;;;;;;;;;;;;5028878;28;19972;-83
2023/08/16 15:09:15;;;;;;;;;;;;;;;;;;5016652;28;19936;-83
2023/08/16 15:11:41;;;;;;;;;;;;;;;;;;5029690;28;19943;-81
2023/08/16 15:14:10;;;;;;;;;;;;;;;;;;5036194;28;20355;-83
2023/08/16 15:16:36;;;;;;;;;;;;;;;;;;5034991;28;19920;-82
2023/08/16 15:19:03;;;;;;;;;;;;;;;;;;5036077;28;19933;-83
2023/08/16 15:21:29;;;;;;;;;;;;;;;;;;5035098;28;19928;-83
2023/08/16 15:23:55;;;;;;;;;;;;;;;;;;5035753;28;19921;-83
2023/08/16 15:26:22;;;;;;;;;;;;;;;;;;5036485;28;20381;-82
2023/08/16 15:28:48;;;;;;;;;;;;;;;;;;5020138;28;19927;-82
2023/08/16 15:31:14;;;;;;;;;;;;;;;;;;5015925;28;19921;-82
2023/08/16 15:33:40;;;;;;;;;;;;;;;;;;5016389;28;19921;-82
2023/08/16 15:36:06;;;;;;;;;;;;;;;;;;5015999;28;20378;-82
2023/08/16 15:38:32;;;;;;;;;;;;;;;;;;5028320;28;19931;-82
2023/08/16 15:40:58;;;;;;;;;;;;;;;;;;5034133;28;19927;-82
2023/08/16 15:43:24;;;;;;;;;;;;;;;;;;5034803;28;19935;-82
2023/08/16 15:45:50;;;;;;;;;;;;;;;;;;5018802;28;19920;-83
2023/08/16 15:48:16;;;;;;;;;;;;;;;;;;5016234;28;19972;-83
2023/08/16 15:50:42;;;;;;;;;;;;;;;;;;5024612;28;20316;-81
2023/08/16 15:53:08;;;;;;;;;;;;;;;;;;5035535;28;19920;-82
2023/08/16 15:55:34;;;;;;;;;;;;;;;;;;5035414;28;19946;-83
2023/08/16 15:58:00;;;;;;;;;;;;;;;;;;5032830;28;19963;-82
2023/08/16 16:00:26;;;;;;;;;;;;;;;;;;5024055;28;19956;-82